Time;durP1;ratioP1;P1;durP2;ratioP2;P2;SDS_P1;SDS_P2;PMS_P1;PMS_P2;Temp;Humidity;BMP_temperature;BMP_pressure;BME280_temperature;BME280_humidity;BME280_pressure;Samples;Min_cycle;Max_cycle;Signal;HPM_P1;HPM_P2
2021/08/06 00:00:48;;;;;;;4.92;2.20;;;;;;;18.26;72.36;100457.20;1775875;80;21395;-84
2021/08/06 00:03:16;;;;;;;5.62;2.33;;;;;;;18.25;72.28;100459.00;1775584;80;21196;-84
2021/08/06 00:05:43;;;;;;;5.03;2.50;;;;;;;18.24;72.32;100452.34;1775930;80;21047;-84
2021/08/06 00:08:10;;;;;;;5.58;2.45;;;;;;;18.24;72.38;100449.69;1776108;80;21036;-84
2021/08/06 00:10:36;;;;;;;4.05;2.50;;;;;;;18.25;72.44;100453.67;1775941;80;21012;-84
2021/08/06 00:13:03;;;;;;;7.55;2.50;;;;;;;18.25;72.35;100448.34;1776285;80;21063;-84
2021/08/06 00:15:30;;;;;;;4.37;2.45;;;;;;;18.23;72.40;100450.14;1784517;80;21788;-85
2021/08/06 00:17:57;;;;;;;6.40;2.30;;;;;;;18.23;72.47;100447.94;1784689;79;21032;-84
2021/08/06 00:20:24;;;;;;;5.62;2.58;;;;;;;18.22;72.38;100445.70;1784792;80;21122;-84
2021/08/06 00:22:50;;;;;;;3.77;2.17;;;;;;;18.21;72.58;100440.42;1784955;80;21020;-84
2021/08/06 00:25:17;;;;;;;3.75;2.10;;;;;;;18.19;72.62;100437.77;1784763;79;21295;-84
2021/08/06 00:27:44;;;;;;;5.85;2.85;;;;;;;18.19;72.65;100437.77;1784827;80;21747;-84
2021/08/06 00:30:11;;;;;;;2.92;2.35;;;;;;;18.21;72.68;100437.75;1784698;80;21012;-84
2021/08/06 00:32:38;;;;;;;3.50;2.40;;;;;;;18.19;72.60;100442.22;1784788;80;21043;-84
2021/08/06 00:35:06;;;;;;;6.15;2.67;;;;;;;18.15;72.60;100436.04;1783897;80;21462;-84
2021/08/06 00:37:34;;;;;;;6.35;2.33;;;;;;;18.15;72.65;100439.12;1784415;80;21078;-84
2021/08/06 00:40:03;;;;;;;7.22;2.00;;;;;;;18.12;72.67;100438.72;1783583;80;21788;-84
2021/08/06 00:42:29;;;;;;;6.72;2.35;;;;;;;18.11;72.62;100441.41;1783975;79;21094;-84
2021/08/06 00:44:56;;;;;;;5.85;2.30;;;;;;;18.09;72.69;100442.74;1782898;79;21659;-84
2021/08/06 00:47:23;;;;;;;6.85;2.40;;;;;;;18.09;72.78;100444.53;1783890;79;22251;-84
2021/08/06 00:49:50;;;;;;;12.13;2.72;;;;;;;18.08;72.80;100447.66;1784218;79;21185;-84
2021/08/06 00:52:16;;;;;;;8.30;2.50;;;;;;;18.07;72.78;100445.88;1784078;79;21738;-84
2021/08/06 00:54:43;;;;;;;3.77;2.33;;;;;;;18.05;72.79;100442.34;1783922;79;21663;-85
2021/08/06 00:57:13;;;;;;;6.92;2.60;;;;;;;18.02;72.74;100446.39;1783869;79;21043;-84
2021/08/06 00:59:40;;;;;;;3.50;2.08;;;;;;;17.98;72.92;100441.55;1775935;80;21060;-85
2021/08/06 01:02:23;;;;;;;5.15;2.42;;;;;;;17.98;73.01;100445.97;1784014;80;21064;-85
2021/08/06 01:05:10;;;;;;;5.92;2.98;;;;;;;17.96;72.96;100447.34;1783447;80;22456;-85
2021/08/06 01:08:10;;;;;;;4.00;2.50;;;;;;;17.95;73.07;100451.34;1761537;80;21082;-83
2021/08/06 01:10:45;;;;;;;5.80;3.45;;;;;;;17.95;73.18;100448.69;1783045;79;21079;-84
2021/08/06 01:13:14;;;;;;;5.10;2.77;;;;;;;17.94;73.17;100447.78;1776612;80;21490;-83
2021/08/06 01:15:41;;;;;;;5.62;2.45;;;;;;;17.92;73.14;100439.39;1784847;80;21043;-84
2021/08/06 01:18:08;;;;;;;6.28;2.02;;;;;;;17.91;73.13;100442.96;1784723;80;22555;-83
2021/08/06 01:20:39;;;;;;;4.55;2.25;;;;;;;17.87;73.09;100440.32;1784549;80;21050;-83
2021/08/06 01:23:19;;;;;;;4.20;2.20;;;;;;;17.86;73.17;100443.86;1778070;80;21024;-84
2021/08/06 01:25:50;;;;;;;6.78;2.45;;;;;;;17.84;73.13;100438.09;1777204;80;21051;-84
2021/08/06 01:28:22;;;;;;;5.10;2.90;;;;;;;17.86;73.09;100445.66;1775778;80;21703;-84
2021/08/06 01:30:48;;;;;;;4.65;2.35;;;;;;;17.84;73.05;100445.66;1775746;80;22616;-84
2021/08/06 01:33:15;;;;;;;5.85;2.65;;;;;;;17.84;73.00;100448.33;1775981;80;21557;-84
2021/08/06 01:35:42;;;;;;;5.35;2.55;;;;;;;17.85;72.95;100444.78;1776230;80;21080;-84
2021/08/06 01:38:09;;;;;;;2.83;2.20;;;;;;;17.86;72.82;100444.32;1743531;80;21122;-84
2021/08/06 01:40:44;;;;;;;5.45;2.30;;;;;;;17.85;72.71;100442.58;1776242;80;21031;-84
2021/08/06 01:43:32;;;;;;;4.22;2.37;;;;;;;17.84;72.65;100437.67;1775692;80;21794;-83
2021/08/06 01:46:08;;;;;;;4.72;2.30;;;;;;;17.82;72.53;100435.91;1776129;80;21384;-83
2021/08/06 01:48:38;;;;;;;4.30;2.22;;;;;;;17.82;72.51;100438.11;1776038;80;21055;-84
2021/08/06 01:51:08;;;;;;;3.65;2.37;;;;;;;17.82;72.35;100431.91;1775943;80;21068;-84
2021/08/06 01:53:38;;;;;;;5.00;2.45;;;;;;;17.81;72.29;100435.03;1776149;80;21127;-84
2021/08/06 01:56:07;;;;;;;4.97;2.40;;;;;;;17.81;72.21;100435.45;1776126;80;21725;-84
2021/08/06 01:58:35;;;;;;;3.02;2.40;;;;;;;17.80;72.18;100431.92;1775975;80;21127;-84
2021/08/06 02:01:02;;;;;;;3.90;2.30;;;;;;;17.78;72.07;100431.52;1776092;80;21605;-85
2021/08/06 02:03:30;;;;;;;5.28;2.17;;;;;;;17.74;72.00;100437.31;1743249;80;49041;-84
2021/08/06 02:05:57;;;;;;;4.35;2.62;;;;;;;17.71;71.93;100433.34;1775864;80;21087;-85
2021/08/06 02:08:24;;;;;;;4.50;2.33;;;;;;;17.68;71.93;100442.24;1775862;80;22530;-84
2021/08/06 02:10:51;;;;;;;3.60;1.95;;;;;;;17.66;71.87;100437.81;1775885;80;21067;-84
2021/08/06 02:13:18;;;;;;;3.83;2.20;;;;;;;17.64;71.81;100438.28;1776044;80;21541;-83
2021/08/06 02:15:48;;;;;;;3.17;2.10;;;;;;;17.62;71.76;100427.64;1750345;80;21036;-84
2021/08/06 02:18:21;;;;;;;5.80;2.42;;;;;;;17.62;71.67;100427.64;1776284;80;21049;-84
2021/08/06 02:20:43;;;;;;;5.35;2.77;;;;;;;17.59;71.61;100431.67;1775189;80;21762;-84
2021/08/06 02:23:10;;;;;;;3.05;2.20;;;;;;;17.58;71.51;100431.23;1776346;80;21012;-84
2021/08/06 02:25:37;;;;;;;2.05;1.85;;;;;;;17.55;71.40;100425.95;1776373;80;21111;-84
2021/08/06 02:28:04;;;;;;;5.28;2.10;;;;;;;17.53;71.36;100431.74;1776162;80;21071;-83
2021/08/06 02:30:31;;;;;;;2.05;1.75;;;;;;;17.48;71.30;100421.58;1776612;80;21039;-84
2021/08/06 02:32:58;;;;;;;4.28;2.27;;;;;;;17.44;71.26;100426.04;1744008;80;21739;-84
2021/08/06 02:35:25;;;;;;;3.77;2.20;;;;;;;17.40;71.25;100423.40;1776384;80;21126;-84
2021/08/06 02:37:52;;;;;;;5.97;2.62;;;;;;;17.35;71.24;100420.80;1776315;80;21028;-84
2021/08/06 02:40:19;;;;;;;4.55;2.60;;;;;;;17.28;71.29;100414.62;1776135;80;21373;-84
2021/08/06 02:42:47;;;;;;;2.98;2.40;;;;;;;17.24;71.40;100416.87;1776483;80;21059;-84
2021/08/06 02:45:14;;;;;;;3.42;1.82;;;;;;;17.24;71.42;100417.33;1776499;80;22556;-84
2021/08/06 02:47:41;;;;;;;7.62;2.17;;;;;;;17.21;71.41;100414.27;1776381;80;21083;-84
2021/08/06 02:50:09;;;;;;;3.35;2.02;;;;;;;17.20;71.42;100412.48;1776366;80;21052;-84
2021/08/06 02:52:35;;;;;;;4.95;2.20;;;;;;;17.21;71.43;100411.61;1776388;80;21083;-84
2021/08/06 02:55:02;;;;;;;4.12;2.30;;;;;;;17.22;71.44;100407.16;1776479;80;21533;-84
2021/08/06 02:57:29;;;;;;;3.40;2.10;;;;;;;17.22;71.36;100405.83;1776419;80;21688;-84
2021/08/06 02:59:56;;;;;;;5.03;2.10;;;;;;;17.21;71.33;100398.30;1776202;80;21044;-84
2021/08/06 03:02:23;;;;;;;3.15;2.40;;;;;;;17.20;71.27;100404.50;1776462;80;21055;-83
2021/08/06 03:04:49;;;;;;;2.58;1.92;;;;;;;17.20;71.20;100400.97;1776331;80;22064;-84
2021/08/06 03:07:21;;;;;;;4.85;2.30;;;;;;;17.21;71.10;100406.28;1776336;80;21047;-84
2021/08/06 03:09:48;;;;;;;4.70;1.60;;;;;;;17.20;71.01;100407.16;1776046;80;21801;-84
2021/08/06 03:12:14;;;;;;;5.00;2.12;;;;;;;17.20;70.94;100403.63;1776173;80;21047;-84
2021/08/06 03:14:41;;;;;;;4.50;1.80;;;;;;;17.18;70.88;100400.98;1776112;80;21106;-84
2021/08/06 03:17:08;;;;;;;4.97;1.60;;;;;;;17.16;70.87;100392.59;1776361;80;21012;-84
2021/08/06 03:19:34;;;;;;;3.40;1.90;;;;;;;17.15;70.83;100390.34;1776429;80;21028;-84
2021/08/06 03:22:01;;;;;;;5.28;1.50;;;;;;;17.14;70.75;100383.73;1776372;80;21737;-83
2021/08/06 03:24:28;;;;;;;3.95;1.52;;;;;;;17.16;70.74;100388.59;1776329;80;22303;-84
2021/08/06 03:26:55;;;;;;;7.03;1.77;;;;;;;17.16;70.66;100384.61;1776516;80;21529;-83
2021/08/06 03:29:21;;;;;;;6.05;1.90;;;;;;;17.17;70.61;100385.90;1776388;80;21408;-83
2021/08/06 03:31:48;;;;;;;1.92;1.37;;;;;;;17.20;70.51;100385.88;1776448;80;21091;-84
2021/08/06 03:34:14;;;;;;;1.65;1.35;;;;;;;17.23;70.48;100382.30;1776506;80;21704;-84
2021/08/06 03:36:41;;;;;;;2.27;1.35;;;;;;;17.25;70.36;100385.87;1776196;80;21055;-84
2021/08/06 03:39:08;;;;;;;5.58;1.55;;;;;;;17.27;70.29;100384.95;1776503;79;21012;-84
2021/08/06 03:41:35;;;;;;;3.83;2.50;;;;;;;17.31;70.23;100381.81;1785064;78;21344;-84
2021/08/06 03:44:01;;;;;;;2.58;1.92;;;;;;;17.34;70.15;100382.22;1784957;80;21079;-84
2021/08/06 03:46:28;;;;;;;3.02;1.37;;;;;;;17.36;70.12;100386.66;1784867;80;21798;-83
2021/08/06 03:48:55;;;;;;;4.50;2.22;;;;;;;17.40;70.14;100384.82;1784780;80;21043;-85
2021/08/06 03:51:21;;;;;;;5.72;3.12;;;;;;;17.43;70.09;100381.69;1784849;80;21168;-83
2021/08/06 03:53:48;;;;;;;6.60;2.92;;;;;;;17.48;70.12;100386.53;1784646;80;21040;-84
2021/08/06 03:56:15;;;;;;;5.10;2.45;;;;;;;17.56;70.04;100384.25;1784680;79;21072;-84
2021/08/06 03:58:41;;;;;;;6.30;2.72;;;;;;;17.62;69.95;100381.52;1784757;80;21778;-84
2021/08/06 04:01:08;;;;;;;3.37;2.08;;;;;;;17.69;69.75;100384.56;1784673;80;21044;-84
2021/08/06 04:03:35;;;;;;;2.60;1.80;;;;;;;17.78;69.58;100380.94;1784838;80;21091;-85
2021/08/06 04:06:01;;;;;;;3.05;1.40;;;;;;;17.87;69.38;100377.75;1784822;80;21043;-84
2021/08/06 04:08:28;;;;;;;4.78;1.50;;;;;;;17.94;69.14;100371.02;1781773;80;20995;-84
2021/08/06 04:10:55;;;;;;;3.47;2.10;;;;;;;17.98;68.96;100369.65;1771022;80;21820;-84
2021/08/06 04:13:22;;;;;;;5.40;2.58;;;;;;;18.01;68.86;100364.27;1780732;79;21015;-85
2021/08/06 04:15:48;;;;;;;1.65;1.30;;;;;;;18.03;68.64;100365.13;1779576;80;21002;-84
2021/08/06 04:18:15;;;;;;;5.47;2.80;;;;;;;18.06;68.40;100366.43;1779868;80;21505;-84
2021/08/06 04:20:42;;;;;;;3.80;1.50;;;;;;;18.07;68.02;100364.64;1757484;80;21034;-87
2021/08/06 04:23:08;;;;;;;3.90;1.95;;;;;;;18.08;67.77;100364.22;1759392;80;21750;-90
2021/08/06 04:25:35;;;;;;;3.02;1.90;;;;;;;18.06;67.44;100361.11;1784860;80;21525;-87
2021/08/06 04:28:01;;;;;;;7.62;1.85;;;;;;;18.05;67.18;100367.31;1784639;80;21010;-87
2021/08/06 04:30:28;;;;;;;3.60;1.60;;;;;;;18.03;67.04;100356.27;1784425;79;21093;-88
2021/08/06 04:32:55;;;;;;;3.00;1.82;;;;;;;18.02;66.87;100352.73;1784954;80;21081;-88
2021/08/06 04:35:22;;;;;;;3.27;2.50;;;;;;;18.01;66.62;100343.42;1767479;80;22546;-87
2021/08/06 04:37:51;;;;;;;7.75;5.95;;;;;;;18.04;66.57;100360.70;1765383;81;21071;-88
2021/08/06 04:40:18;;;;;;;3.22;2.20;;;;;;;18.08;66.36;100355.77;1766183;80;21062;-86
2021/08/06 04:42:45;;;;;;;3.75;1.47;;;;;;;18.11;66.04;100346.84;1784962;80;21057;-87
2021/08/06 04:45:19;;;;;;;3.72;1.85;;;;;;;18.12;65.87;100349.49;1784839;80;21077;-87
2021/08/06 04:47:47;;;;;;;2.00;1.65;;;;;;;18.12;65.59;100355.28;1771188;80;21608;-84
2021/08/06 04:50:15;;;;;;;2.90;1.62;;;;;;;18.13;65.35;100341.05;1784797;80;21030;-84
2021/08/06 04:52:41;;;;;;;5.03;1.40;;;;;;;18.16;64.87;100340.56;1784831;80;21134;-86
2021/08/06 04:55:09;;;;;;;4.55;1.10;;;;;;;18.18;64.71;100329.89;1784809;80;21026;-86
2021/08/06 04:57:36;;;;;;;4.00;1.20;;;;;;;18.21;64.49;100340.05;1784957;80;21031;-87
2021/08/06 05:00:08;;;;;;;3.67;2.33;;;;;;;18.27;64.04;100343.09;1784995;80;21814;-87
2021/08/06 05:02:35;;;;;;;1.98;1.00;;;;;;;18.28;63.77;100344.84;1779131;80;20983;-88
2021/08/06 05:05:03;;;;;;;3.37;1.40;;;;;;;18.33;63.46;100343.46;1785018;80;21046;-87
2021/08/06 05:07:29;;;;;;;3.72;1.95;;;;;;;18.37;63.34;100343.38;1785038;79;21019;-86
2021/08/06 05:09:56;;;;;;;5.28;1.55;;;;;;;18.38;63.05;100339.83;1784790;80;21554;-84
2021/08/06 05:12:23;;;;;;;2.62;1.20;;;;;;;18.40;63.03;100328.70;1769948;80;21790;-84
2021/08/06 05:14:49;;;;;;;4.62;1.17;;;;;;;18.43;62.77;100334.00;1768918;81;21341;-85
2021/08/06 05:17:16;;;;;;;1.62;1.05;;;;;;;18.47;62.51;100333.50;1768378;81;21142;-84
2021/08/06 05:19:43;;;;;;;3.12;0.80;;;;;;;18.50;62.29;100325.91;1768454;80;21321;-84
2021/08/06 05:22:10;;;;;;;6.53;1.12;;;;;;;18.55;62.09;100328.06;1768310;79;21066;-84
2021/08/06 05:24:36;;;;;;;3.87;1.05;;;;;;;18.55;61.53;100329.39;1768371;80;21796;-85
2021/08/06 05:27:03;;;;;;;1.92;1.40;;;;;;;18.56;61.22;100324.05;1768575;80;21095;-85
2021/08/06 05:29:30;;;;;;;3.92;0.90;;;;;;;18.61;60.97;100327.96;1768652;81;21146;-85
2021/08/06 05:31:57;;;;;;;4.53;1.35;;;;;;;18.66;60.76;100319.45;1768559;81;21070;-85
2021/08/06 05:34:23;;;;;;;3.05;1.87;;;;;;;18.72;60.33;100327.81;1768886;81;21046;-85
2021/08/06 05:36:50;;;;;;;3.85;1.50;;;;;;;18.75;60.11;100317.98;1769077;79;21748;-84
2021/08/06 05:39:17;;;;;;;7.45;2.55;;;;;;;18.78;60.02;100320.58;1769148;81;21027;-85
2021/08/06 05:41:43;;;;;;;3.20;1.50;;;;;;;18.84;59.82;100319.20;1769016;81;21047;-85
2021/08/06 05:44:10;;;;;;;4.58;1.10;;;;;;;18.83;59.58;100329.43;1769276;80;21403;-85
2021/08/06 05:46:36;;;;;;;2.22;1.05;;;;;;;18.86;59.34;100327.61;1769002;81;21043;-85
2021/08/06 05:49:03;;;;;;;2.77;1.10;;;;;;;18.88;58.85;100323.14;1768973;79;21744;-85
2021/08/06 05:51:30;;;;;;;4.30;1.10;;;;;;;18.92;58.71;100333.75;1769005;80;20996;-85
2021/08/06 05:53:57;;;;;;;4.65;1.20;;;;;;;18.95;58.14;100330.14;1768919;81;21090;-85
2021/08/06 05:56:23;;;;;;;3.12;1.25;;;;;;;18.94;57.96;100331.94;1769065;81;21395;-85
2021/08/06 05:58:50;;;;;;;2.45;0.98;;;;;;;18.95;57.80;100323.47;1769092;81;21024;-85
2021/08/06 06:01:17;;;;;;;4.62;2.85;;;;;;;19.00;57.52;100324.28;1769171;81;21196;-84
2021/08/06 06:03:43;;;;;;;4.12;1.47;;;;;;;19.02;57.67;100335.81;1768842;81;21595;-85
2021/08/06 06:06:10;;;;;;;5.42;1.27;;;;;;;19.07;57.71;100339.28;1769240;81;21008;-85
2021/08/06 06:08:37;;;;;;;5.78;1.22;;;;;;;19.11;57.30;100334.33;1769064;81;21532;-86
2021/08/06 06:11:03;;;;;;;4.12;1.20;;;;;;;19.14;57.42;100334.25;1769174;81;20991;-86
2021/08/06 06:13:30;;;;;;;6.00;1.00;;;;;;;19.17;57.22;100333.34;1769096;81;21738;-86
2021/08/06 06:15:57;;;;;;;1.90;1.10;;;;;;;19.18;57.30;100337.32;1769319;81;21595;-85
2021/08/06 06:18:23;;;;;;;1.62;1.00;;;;;;;19.26;57.24;100347.86;1769323;81;21560;-85
2021/08/06 06:20:51;;;;;;;2.77;0.95;;;;;;;19.27;56.43;100338.92;1769101;81;21111;-85
2021/08/06 06:23:18;;;;;;;2.70;0.98;;;;;;;19.23;56.42;100326.09;1768829;81;21633;-85
2021/08/06 06:25:45;;;;;;;2.33;0.95;;;;;;;19.23;56.40;100349.23;1768986;79;21776;-85
2021/08/06 06:28:12;;;;;;;4.15;0.70;;;;;;;19.18;55.97;100322.64;1768849;81;21012;-84
2021/08/06 06:30:38;;;;;;;2.22;1.15;;;;;;;19.15;55.95;100320.48;1769113;81;21019;-85
2021/08/06 06:33:05;;;;;;;2.72;0.82;;;;;;;19.17;56.18;100324.00;1769296;81;21003;-84
2021/08/06 06:35:32;;;;;;;2.85;0.70;;;;;;;19.20;56.21;100315.92;1769445;79;21036;-84
2021/08/06 06:37:58;;;;;;;2.95;0.75;;;;;;;19.22;56.19;100322.14;1769170;81;21749;-85
2021/08/06 06:40:26;;;;;;;1.60;0.90;;;;;;;19.22;56.09;100315.47;1769218;81;21561;-85
2021/08/06 06:42:53;;;;;;;3.77;1.07;;;;;;;19.21;56.17;100318.56;1768461;80;21032;-85
2021/08/06 06:45:20;;;;;;;2.62;1.27;;;;;;;19.22;56.20;100316.80;1769227;81;21444;-85
2021/08/06 06:47:49;;;;;;;2.05;1.35;;;;;;;19.27;56.31;100318.91;1769392;79;21019;-84
2021/08/06 06:50:18;;;;;;;3.08;2.33;;;;;;;19.27;56.16;100317.58;1769314;79;22655;-85
2021/08/06 06:52:45;;;;;;;9.08;1.05;;;;;;;19.29;56.29;100314.89;1769233;79;21004;-85
2021/08/06 06:55:12;;;;;;;2.98;1.42;;;;;;;19.32;56.13;100310.84;1743921;81;21049;-85
2021/08/06 06:57:43;;;;;;;3.45;1.92;;;;;;;19.35;56.09;100310.34;1769292;80;21155;-85
2021/08/06 07:00:11;;;;;;;2.12;0.85;;;;;;;19.35;55.90;100322.78;1769321;79;21075;-85
2021/08/06 07:02:38;;;;;;;1.52;0.70;;;;;;;19.34;55.56;100315.23;1769240;81;21553;-85
2021/08/06 07:05:05;;;;;;;6.40;1.50;;;;;;;19.36;55.44;100320.55;1769177;81;20992;-85
2021/08/06 07:07:32;;;;;;;1.60;1.20;;;;;;;19.38;55.30;100307.59;1769269;79;21066;-85
2021/08/06 07:09:58;;;;;;;3.92;2.00;;;;;;;19.39;55.29;100307.16;1769140;81;21619;-85
2021/08/06 07:12:25;;;;;;;3.40;1.92;;;;;;;19.46;55.46;100310.58;1769308;81;21822;-85
2021/08/06 07:14:52;;;;;;;4.05;1.02;;;;;;;19.47;55.40;100300.34;1769228;81;22554;-85
2021/08/06 07:17:18;;;;;;;5.42;1.10;;;;;;;19.51;55.50;100310.05;1769220;81;21024;-85
2021/08/06 07:19:45;;;;;;;2.72;0.80;;;;;;;19.52;55.40;100331.81;1769189;79;21024;-85
2021/08/06 07:22:12;;;;;;;3.42;0.68;;;;;;;19.46;55.39;100298.56;1769221;81;21011;-85
2021/08/06 07:24:38;;;;;;;2.50;0.90;;;;;;;19.47;55.39;100299.01;1769084;81;21023;-84
2021/08/06 07:27:05;;;;;;;3.22;1.10;;;;;;;19.47;54.96;100305.22;1769223;80;21740;-85
2021/08/06 07:29:32;;;;;;;6.25;1.70;;;;;;;19.45;55.02;100302.16;1769291;81;21037;-85
2021/08/06 07:31:58;;;;;;;1.27;0.80;;;;;;;19.51;55.05;100295.37;1769225;81;21048;-84
2021/08/06 07:34:25;;;;;;;1.10;0.70;;;;;;;19.52;54.76;100296.67;1769284;79;21129;-85
2021/08/06 07:36:52;;;;;;;2.08;0.88;;;;;;;19.52;54.41;100297.11;1769214;81;21067;-85
2021/08/06 07:39:18;;;;;;;3.33;1.10;;;;;;;19.53;54.25;100296.22;1769243;81;21761;-85
2021/08/06 07:41:45;;;;;;;3.10;1.00;;;;;;;19.53;54.37;100289.08;1768945;81;21031;-84
2021/08/06 07:44:12;;;;;;;2.50;1.17;;;;;;;19.61;54.63;100283.58;1769236;81;21606;-85
2021/08/06 07:46:38;;;;;;;0.80;0.80;;;;;;;19.66;54.29;100294.19;1769135;81;21106;-85
2021/08/06 07:49:05;;;;;;;2.30;0.90;;;;;;;19.63;54.29;100293.77;1769310;79;21015;-85
2021/08/06 07:51:32;;;;;;;4.75;1.57;;;;;;;19.63;54.48;100291.11;1769232;81;21748;-85
2021/08/06 07:53:59;;;;;;;8.13;2.62;;;;;;;19.63;54.38;100283.09;1769095;81;21046;-85
2021/08/06 07:56:25;;;;;;;3.20;1.47;;;;;;;19.64;53.95;100303.56;1769241;80;21505;-85
2021/08/06 07:58:52;;;;;;;4.28;1.55;;;;;;;19.66;53.70;100286.18;1769358;81;21264;-85
2021/08/06 08:01:19;;;;;;;4.78;2.87;;;;;;;19.63;53.57;100284.43;1769216;81;21015;-84
2021/08/06 08:03:46;;;;;;;2.17;1.27;;;;;;;19.65;53.71;100283.07;1768939;81;22831;-85
2021/08/06 08:06:13;;;;;;;4.15;1.62;;;;;;;19.71;53.34;100273.63;1768980;80;21515;-85
2021/08/06 08:08:40;;;;;;;1.67;0.80;;;;;;;19.75;53.12;100275.35;1769052;81;21389;-85
2021/08/06 08:11:07;;;;;;;1.67;1.02;;;;;;;19.83;52.97;100272.05;1769097;80;21063;-85
2021/08/06 08:13:34;;;;;;;2.80;1.20;;;;;;;19.87;53.22;100279.55;1769216;81;21026;-84
2021/08/06 08:16:01;;;;;;;2.62;1.50;;;;;;;19.93;53.32;100272.30;1769189;81;21687;-84
2021/08/06 08:18:27;;;;;;;2.70;1.75;;;;;;;20.03;52.92;100269.41;1760158;80;21010;-85
2021/08/06 08:20:54;;;;;;;2.27;1.05;;;;;;;20.03;53.02;100276.08;1760710;81;21035;-85
2021/08/06 08:23:21;;;;;;;3.45;0.80;;;;;;;20.03;53.10;100295.69;1760761;81;21513;-85
2021/08/06 08:25:54;;;;;;;2.15;1.00;;;;;;;20.07;53.17;100273.33;1760874;81;21061;-84
2021/08/06 08:28:22;;;;;;;1.20;1.07;;;;;;;20.03;52.78;100270.73;1760626;81;22612;-85
2021/08/06 08:30:49;;;;;;;5.45;0.90;;;;;;;19.98;52.54;100294.89;1759663;81;21034;-84
2021/08/06 08:33:19;;;;;;;4.70;1.20;;;;;;;19.92;52.93;100266.52;1760754;81;21010;-85
2021/08/06 08:35:46;;;;;;;2.42;1.50;;;;;;;19.97;53.04;100282.01;1760422;79;21030;-85
2021/08/06 08:38:12;;;;;;;3.20;1.35;;;;;;;20.02;53.24;100259.65;1760546;81;21077;-85
2021/08/06 08:40:40;;;;;;;5.92;2.05;;;;;;;20.16;53.25;100271.80;1760449;81;21704;-85
2021/08/06 08:43:07;;;;;;;3.12;1.60;;;;;;;20.20;52.68;100253.91;1760264;81;21112;-84
2021/08/06 08:45:39;;;;;;;2.95;1.50;;;;;;;20.16;52.90;100252.22;1760487;81;21057;-85
2021/08/06 08:48:04;;;;;;;2.40;2.20;;;;;;;20.21;52.92;100246.29;1760436;80;21038;-85
2021/08/06 08:50:31;;;;;;;6.90;1.27;;;;;;;20.33;53.01;100243.81;1760768;81;21041;-85
2021/08/06 08:52:57;;;;;;;6.00;2.50;;;;;;;20.38;52.46;100246.80;1760868;79;22137;-85
2021/08/06 08:55:24;;;;;;;3.67;1.32;;;;;;;20.45;52.54;100235.95;1760635;81;21034;-85
2021/08/06 08:57:51;;;;;;;3.22;1.15;;;;;;;20.49;52.25;100244.31;1760821;79;21619;-85
2021/08/06 09:00:17;;;;;;;3.30;1.15;;;;;;;20.40;51.80;100230.70;1760843;81;21424;-85
2021/08/06 09:02:47;;;;;;;4.97;1.02;;;;;;;20.28;51.63;100240.36;1760849;80;21078;-85
2021/08/06 09:05:26;;;;;;;3.20;1.20;;;;;;;20.25;51.76;100245.77;1760781;81;21758;-85
2021/08/06 09:07:53;;;;;;;3.80;1.12;;;;;;;20.33;52.21;100228.65;1760744;81;21010;-85
2021/08/06 09:10:24;;;;;;;3.17;1.40;;;;;;;20.43;52.03;100226.63;1759986;79;21587;-85
2021/08/06 09:13:01;;;;;;;6.35;1.50;;;;;;;20.45;51.53;100226.59;1760141;81;21059;-84
2021/08/06 09:15:47;;;;;;;4.33;1.15;;;;;;;20.46;51.05;100231.02;1760840;81;21120;-85
2021/08/06 09:18:37;;;;;;;4.45;1.00;;;;;;;20.44;51.09;100230.17;1736592;82;21797;-85
2021/08/06 09:21:18;;;;;;;6.10;1.75;;;;;;;20.41;50.79;100237.82;1737377;82;21015;-85
2021/08/06 09:23:55;;;;;;;2.50;1.10;;;;;;;20.36;50.85;100239.71;1734205;82;21482;-85
2021/08/06 09:26:41;;;;;;;4.35;1.05;;;;;;;20.29;50.85;100226.97;1734192;82;21043;-85
2021/08/06 09:29:22;;;;;;;5.72;1.52;;;;;;;20.27;51.02;100226.13;1733569;82;21039;-85
2021/08/06 09:31:59;;;;;;;7.15;2.05;;;;;;;20.10;51.28;100208.25;1733962;82;21812;-85
2021/08/06 09:34:29;;;;;;;6.40;2.25;;;;;;;20.14;51.64;100233.55;1733649;82;21083;-86
2021/08/06 09:37:01;;;;;;;5.87;1.10;;;;;;;20.10;51.75;100222.51;1733749;82;21007;-85
2021/08/06 09:39:37;;;;;;;5.00;1.37;;;;;;;20.02;51.80;100236.47;1733291;82;21445;-85
2021/08/06 09:42:06;;;;;;;5.05;1.05;;;;;;;19.93;52.00;100221.55;1734001;82;21090;-86
2021/08/06 09:44:33;;;;;;;4.15;1.17;;;;;;;19.89;52.21;100219.83;1732972;82;21762;-86
2021/08/06 09:47:21;;;;;;;4.90;1.40;;;;;;;19.91;52.60;100220.67;1734106;82;21505;-86
2021/08/06 09:52:18;;;;;;;2.62;1.30;;;;;;;20.12;53.01;100233.14;1739588;82;21007;-87
2021/08/06 09:54:51;;;;;;;3.92;1.37;;;;;;;20.17;52.58;100228.11;1734037;82;21042;-85
2021/08/06 09:57:18;;;;;;;5.65;1.30;;;;;;;20.19;52.31;100217.39;1713614;82;21782;-85
2021/08/06 09:59:51;;;;;;;3.62;1.82;;;;;;;20.12;52.21;100216.67;1734074;82;21008;-85
2021/08/06 10:02:20;;;;;;;;;;;;;;;20.22;52.61;100237.37;1736491;82;21536;-85
2021/08/06 10:05:04;;;;;;;6.92;1.50;;;;;;;20.24;52.56;100222.64;1759903;81;20665;-85
2021/08/06 10:07:34;;;;;;;4.97;1.45;;;;;;;20.19;52.43;100228.08;1731043;82;21066;-85
2021/08/06 10:10:04;;;;;;;1.98;1.10;;;;;;;20.13;52.56;100230.44;1741221;81;21770;-85
2021/08/06 10:12:30;;;;;;;3.25;1.40;;;;;;;20.20;52.77;100219.16;1741027;82;21102;-85
2021/08/06 10:14:57;;;;;;;11.12;1.67;;;;;;;20.20;52.80;100228.05;1741375;80;21046;-85
2021/08/06 10:17:24;;;;;;;2.85;1.27;;;;;;;20.25;52.70;100222.58;1741532;82;21050;-85
2021/08/06 10:19:51;;;;;;;3.65;1.80;;;;;;;20.27;52.68;100223.45;1741464;82;21078;-85
2021/08/06 10:22:18;;;;;;;5.47;1.37;;;;;;;20.30;52.87;100226.03;1741580;80;21752;-85
2021/08/06 10:24:51;;;;;;;5.05;1.60;;;;;;;20.27;52.69;100227.47;1741534;80;21015;-86
2021/08/06 10:27:27;;;;;;;3.22;1.70;;;;;;;20.20;52.82;100225.38;1741301;80;21047;-85
2021/08/06 10:30:10;;;;;;;3.58;1.30;;;;;;;20.12;53.14;100235.81;1740437;80;21393;-85
2021/08/06 10:32:38;;;;;;;3.20;1.13;;;;;;;20.12;53.51;100218.00;1735631;81;21077;-86
2021/08/06 10:35:18;;;;;;;2.75;1.40;;;;;;;20.11;53.38;100224.72;1741424;82;22567;-85
2021/08/06 10:38:04;;;;;;;8.75;1.42;;;;;;;20.16;53.60;100232.18;1741965;82;21023;-85
2021/08/06 10:40:39;;;;;;;4.30;1.37;;;;;;;20.16;53.72;100221.48;1742015;82;21110;-85
2021/08/06 10:43:20;;;;;;;5.80;1.90;;;;;;;20.12;53.68;100233.14;1741951;82;21489;-85
2021/08/06 10:45:52;;;;;;;5.75;1.40;;;;;;;20.06;53.64;100225.27;1742168;80;21073;-85
2021/08/06 10:48:35;;;;;;;4.92;1.70;;;;;;;20.12;53.90;100213.09;1742149;81;22748;-85
2021/08/06 10:51:20;;;;;;;3.87;1.50;;;;;;;20.18;53.95;100226.34;1741900;82;21023;-85
2021/08/06 10:54:04;;;;;;;6.78;2.27;;;;;;;20.19;53.86;100214.25;1741867;82;21015;-84
2021/08/06 10:56:36;;;;;;;10.53;3.02;;;;;;;20.12;53.93;100227.36;1742485;82;21043;-84
2021/08/06 10:59:14;;;;;;;5.50;1.95;;;;;;;20.11;54.33;100236.27;1742392;82;21019;-87
2021/08/06 11:01:46;;;;;;;10.48;2.85;;;;;;;20.16;54.12;100213.01;1742128;82;21219;-84
2021/08/06 11:04:21;;;;;;;3.98;1.62;;;;;;;20.16;53.95;100213.01;1742200;82;21032;-85
2021/08/06 11:06:55;;;;;;;7.47;1.62;;;;;;;20.10;54.01;100210.48;1742346;82;21016;-85
2021/08/06 11:09:30;;;;;;;5.25;1.57;;;;;;;20.10;54.12;100227.86;1741997;82;21036;-84
2021/08/06 11:12:05;;;;;;;13.45;2.35;;;;;;;20.05;54.16;100208.83;1742345;82;21513;-85
2021/08/06 11:14:44;;;;;;;8.85;2.20;;;;;;;20.00;54.24;100212.46;1742282;82;21251;-85
2021/08/06 11:19:53;;;;;;;5.55;2.55;;;;;;;19.97;54.58;100214.31;1742793;82;21508;-85
2021/08/06 11:22:36;;;;;;;6.95;2.20;;;;;;;20.03;54.74;100220.88;1742282;82;21344;-85
2021/08/06 11:25:24;;;;;;;10.80;1.90;;;;;;;20.12;54.77;100201.98;1738306;82;21042;-85
2021/08/06 11:27:56;;;;;;;14.45;1.87;;;;;;;20.14;54.75;100204.59;1740139;81;21750;-85
2021/08/06 11:30:35;;;;;;;10.53;2.47;;;;;;;20.20;54.62;100216.48;1741967;82;21050;-85
2021/08/06 11:33:06;;;;;;;7.62;3.47;;;;;;;20.23;54.59;100213.72;1742173;82;21036;-85
2021/08/06 11:35:35;;;;;;;9.05;2.87;;;;;;;20.21;54.36;100208.88;1742255;82;21151;-85
2021/08/06 11:38:10;;;;;;;6.25;2.08;;;;;;;20.14;54.61;100212.17;1719799;81;21288;-86